createdAt,value
2019-01-26T12:12:57.580Z,19.65
2019-01-26T12:15:26.001Z,19.70
2019-01-26T12:17:54.444Z,19.76
2019-01-26T12:20:22.872Z,19.78
2019-01-26T12:22:51.642Z,19.81
2019-01-26T12:25:20.424Z,19.83
2019-01-26T12:27:48.879Z,19.85
2019-01-26T12:32:13.714Z,18.77
2019-01-26T12:34:42.225Z,11.47
2019-01-26T12:37:10.656Z,6.48
2019-01-26T12:39:39.086Z,6.48
2019-01-26T12:42:07.841Z,5.71
2019-01-26T12:44:36.529Z,5.41
2019-01-26T12:47:05.072Z,5.30
2019-01-26T12:49:33.552Z,5.16
2019-01-26T12:52:02.278Z,5.14
2019-01-26T12:54:30.700Z,5.10
2019-01-26T12:56:59.542Z,5.05
2019-01-26T12:59:27.969Z,5.08
2019-01-26T13:01:56.714Z,5.04
2019-01-26T13:04:26.415Z,5.01
2019-01-26T13:06:54.985Z,5.00
2019-01-26T13:09:23.786Z,5.02
2019-01-26T13:11:52.611Z,5.03
2019-01-26T13:14:21.061Z,5.00
2019-01-26T13:16:50.056Z,4.95
2019-01-26T13:19:18.518Z,4.92
2019-01-26T13:21:47.221Z,4.90
2019-01-26T13:24:15.682Z,4.88
2019-01-26T13:26:44.381Z,4.87
2019-01-26T13:29:13.178Z,4.83
2019-01-26T13:31:41.878Z,4.80
2019-01-26T13:34:10.648Z,4.77
2019-01-26T13:36:39.070Z,4.76
2019-01-26T13:39:09.511Z,4.73
2019-01-26T13:41:38.306Z,4.77
2019-01-26T13:44:06.788Z,4.78
2019-01-26T13:46:35.510Z,4.75
2019-01-26T13:49:04.205Z,4.74
2019-01-26T13:51:34.047Z,4.74
2019-01-26T13:54:02.566Z,4.69
2019-01-26T13:56:30.998Z,4.69
2019-01-26T13:58:59.454Z,4.69
2019-01-26T14:01:27.938Z,4.71
2019-01-26T14:03:56.365Z,4.72
2019-01-26T14:06:26.836Z,4.71
2019-01-26T14:08:55.307Z,4.73
2019-01-26T14:11:23.737Z,4.72
2019-01-26T14:13:52.483Z,4.73
2019-01-26T14:16:21.226Z,4.72
2019-01-26T14:18:49.672Z,4.75
2019-01-26T14:21:18.580Z,4.74
2019-01-26T14:23:47.029Z,4.73
2019-01-26T14:26:15.483Z,4.77
2019-01-26T14:28:43.934Z,4.74
2019-01-26T14:31:12.502Z,4.73
2019-01-26T14:33:41.301Z,4.72
2019-01-26T14:36:09.752Z,4.70
2019-01-26T14:38:38.419Z,4.66
2019-01-26T14:41:07.217Z,4.68
2019-01-26T14:43:35.650Z,4.43
2019-01-26T14:46:05.006Z,4.64
2019-01-26T14:48:33.896Z,4.66
2019-01-26T14:51:02.674Z,4.64
2019-01-26T14:53:31.806Z,4.65
2019-01-26T14:56:00.515Z,4.65
2019-01-26T14:58:28.951Z,4.63
2019-01-26T15:00:57.397Z,4.68
2019-01-26T15:03:26.342Z,4.69
2019-01-26T15:05:55.000Z,4.64
2019-01-26T15:08:23.443Z,4.64
2019-01-26T15:10:51.966Z,4.62
2019-01-26T15:13:20.935Z,4.61
2019-01-26T15:15:49.379Z,4.60
2019-01-26T15:18:17.809Z,4.61
2019-01-26T15:20:46.261Z,4.60
2019-01-26T15:23:14.716Z,4.61
2019-01-26T15:25:43.444Z,4.60
2019-01-26T15:28:12.127Z,4.63
2019-01-26T15:30:42.524Z,4.65
2019-01-26T15:33:11.548Z,4.62
2019-01-26T15:35:40.019Z,4.57
2019-01-26T15:38:09.969Z,4.64
2019-01-26T15:40:38.499Z,4.26
2019-01-26T15:43:06.951Z,4.60
2019-01-26T15:45:38.442Z,4.60
2019-01-26T15:48:07.386Z,4.61
2019-01-26T15:50:36.131Z,4.62
2019-01-26T15:53:04.672Z,4.59
2019-01-26T15:55:33.443Z,4.63
2019-01-26T15:58:01.888Z,4.65
2019-01-26T16:00:33.231Z,4.63
2019-01-26T16:03:01.818Z,4.60
2019-01-26T16:05:30.532Z,4.60
2019-01-26T16:07:59.406Z,4.56
2019-01-26T16:10:28.187Z,4.60
2019-01-26T16:12:56.628Z,4.60
2019-01-26T16:15:27.333Z,4.65
2019-01-26T16:17:55.859Z,4.67
2019-01-26T16:20:24.323Z,4.61
2019-01-26T16:22:52.805Z,4.60
2019-01-26T16:25:21.448Z,4.58
2019-01-26T16:27:49.910Z,4.59
2019-01-26T16:30:40.073Z,4.60
2019-01-26T16:33:08.875Z,4.58
2019-01-26T16:35:37.680Z,4.63
2019-01-26T16:38:06.174Z,4.59
2019-01-26T16:40:35.951Z,4.62
2019-01-26T16:43:05.597Z,4.62
2019-01-26T16:45:37.583Z,4.61
2019-01-26T16:48:06.019Z,4.65
2019-01-26T16:50:34.806Z,4.70
2019-01-26T16:53:03.617Z,4.72
2019-01-26T16:55:32.186Z,4.69
2019-01-26T16:58:00.949Z,4.65
2019-01-26T17:00:41.055Z,4.68
2019-01-26T17:03:09.796Z,4.72
2019-01-26T17:05:38.591Z,4.66
2019-01-26T17:08:07.888Z,4.63
2019-01-26T17:10:36.591Z,4.62
2019-01-26T17:13:05.311Z,4.65
2019-01-26T17:15:33.851Z,4.68
2019-01-26T17:18:02.658Z,4.61
2019-01-26T17:20:35.088Z,4.59
2019-01-26T17:23:02.665Z,4.65
2019-01-26T17:25:31.655Z,4.62
2019-01-26T17:28:00.100Z,4.63
2019-01-26T17:30:35.661Z,4.61
2019-01-26T17:33:07.657Z,4.59
2019-01-26T17:35:37.349Z,4.59
2019-01-26T17:38:06.490Z,4.60
2019-01-26T17:40:36.221Z,4.62
2019-01-26T17:43:06.940Z,4.62
2019-01-26T17:45:35.681Z,4.60
2019-01-26T17:48:06.441Z,4.53
2019-01-26T17:50:41.883Z,4.54
2019-01-26T17:53:05.807Z,4.54
2019-01-26T17:55:34.519Z,4.57
2019-01-26T17:58:03.423Z,4.51
2019-01-26T18:00:39.726Z,4.53
2019-01-26T18:03:10.075Z,4.55
2019-01-26T18:05:38.512Z,4.51
2019-01-26T18:08:07.412Z,4.42
2019-01-26T18:10:36.116Z,4.47
2019-01-26T18:13:04.575Z,4.54
2019-01-26T18:15:33.016Z,4.56
2019-01-26T18:18:01.738Z,4.50
2019-01-26T18:20:32.090Z,4.55
2019-01-26T18:23:01.765Z,4.55
2019-01-26T18:25:33.258Z,4.58
2019-01-26T18:28:03.311Z,4.57
2019-01-26T18:30:32.398Z,4.53
2019-01-26T18:33:00.949Z,4.55
2019-01-26T18:35:29.624Z,4.56
2019-01-26T18:37:58.064Z,4.57
2019-01-26T18:40:27.039Z,4.61
2019-01-26T18:42:55.480Z,4.61
2019-01-26T18:45:25.380Z,4.61
2019-01-26T18:47:54.148Z,4.62
2019-01-26T18:50:25.567Z,4.65
2019-01-26T18:52:54.243Z,4.74
2019-01-26T18:55:23.039Z,4.71
2019-01-26T18:57:51.811Z,4.61
2019-01-26T19:00:22.618Z,4.61
2019-01-26T19:02:55.141Z,4.58
2019-01-26T19:05:23.614Z,4.58
2019-01-26T19:07:52.304Z,4.57
2019-01-26T19:10:20.768Z,4.56
2019-01-26T19:12:49.220Z,4.52
2019-01-26T19:15:19.939Z,4.55
2019-01-26T19:17:48.378Z,4.52
2019-01-26T19:20:16.830Z,4.52
2019-01-26T19:22:45.550Z,4.55
2019-01-26T19:25:15.785Z,4.45
2019-01-26T19:27:44.761Z,4.46
2019-01-26T19:30:15.311Z,4.44
2019-01-26T19:32:44.076Z,4.47
2019-01-26T19:35:12.530Z,4.43
2019-01-26T19:37:40.961Z,4.40
2019-01-26T19:40:12.931Z,4.34
2019-01-26T19:42:41.458Z,4.25
2019-01-26T19:45:11.863Z,4.19
2019-01-26T19:47:40.594Z,4.16
2019-01-26T19:50:11.360Z,4.11
2019-01-26T19:52:39.811Z,4.04
2019-01-26T19:55:08.322Z,4.04
2019-01-26T19:57:36.771Z,4.01
2019-01-26T20:00:07.204Z,3.99
2019-01-26T20:02:35.657Z,3.92
2019-01-26T20:05:04.920Z,3.90
2019-01-26T20:07:33.614Z,3.90
2019-01-26T20:10:02.515Z,3.86
2019-01-26T20:12:30.925Z,3.83
2019-01-26T20:14:59.720Z,3.81
2019-01-26T20:17:28.408Z,3.80
2019-01-26T20:19:57.198Z,3.77
2019-01-26T20:22:28.322Z,3.79
2019-01-26T20:24:56.774Z,3.74
2019-01-26T20:27:25.507Z,3.73
2019-01-26T20:29:54.035Z,3.74
2019-01-26T20:32:24.062Z,3.70
2019-01-26T20:34:52.787Z,3.69
2019-01-26T20:37:21.217Z,3.65
2019-01-26T20:39:49.950Z,3.65
2019-01-26T20:42:18.767Z,3.65
2019-01-26T20:44:47.220Z,3.67
2019-01-26T20:47:15.972Z,3.62
2019-01-26T20:49:44.406Z,3.63
2019-01-26T20:52:12.861Z,3.59
2019-01-26T20:54:41.311Z,3.59
2019-01-26T20:57:09.753Z,3.62
2019-01-26T20:59:38.221Z,3.59
2019-01-26T21:02:07.006Z,3.56
2019-01-26T21:04:35.692Z,3.55
2019-01-26T21:07:04.467Z,3.55
2019-01-26T21:09:32.926Z,3.52
2019-01-26T21:12:01.949Z,3.48
2019-01-26T21:14:30.738Z,3.46
2019-01-26T21:16:59.188Z,3.46
2019-01-26T21:19:27.624Z,3.47
2019-01-26T21:21:56.408Z,3.45
2019-01-26T21:24:25.172Z,3.46
2019-01-26T21:26:53.607Z,3.50
2019-01-26T21:29:22.048Z,3.49
2019-01-26T21:31:50.507Z,3.50
2019-01-26T21:34:19.297Z,3.47
2019-01-26T21:36:47.742Z,3.50
2019-01-26T21:39:16.773Z,3.49
2019-01-26T21:41:45.450Z,3.50
2019-01-26T21:44:13.893Z,3.50
2019-01-26T21:46:42.347Z,3.49
2019-01-26T21:49:11.202Z,3.50
2019-01-26T21:51:39.659Z,3.48
2019-01-26T21:54:08.374Z,3.49
2019-01-26T21:56:37.199Z,3.47
2019-01-26T21:59:05.638Z,3.48
2019-01-26T22:01:34.430Z,3.44
2019-01-26T22:04:03.108Z,3.45
2019-01-26T22:06:31.558Z,3.42
2019-01-26T22:09:00.311Z,3.42
2019-01-26T22:11:28.755Z,3.41
2019-01-26T22:13:57.187Z,3.41
2019-01-26T22:16:25.622Z,3.43
2019-01-26T22:18:54.056Z,3.40
2019-01-26T22:21:22.498Z,3.41
2019-01-26T22:23:50.977Z,3.39
2019-01-26T22:26:19.972Z,3.37
2019-01-26T22:28:48.397Z,3.40
2019-01-26T22:31:16.900Z,3.39
2019-01-26T22:33:45.359Z,3.42
2019-01-26T22:36:14.058Z,3.41
2019-01-26T22:38:42.496Z,3.42
2019-01-26T22:41:10.937Z,3.40
2019-01-26T22:43:39.690Z,3.41
2019-01-26T22:46:08.503Z,3.41
2019-01-26T22:48:36.991Z,3.41
2019-01-26T22:51:05.413Z,3.44
2019-01-26T22:53:34.180Z,3.42
2019-01-26T22:56:02.631Z,3.45
2019-01-26T22:58:31.130Z,3.43
2019-01-26T23:01:03.720Z,3.49
2019-01-26T23:04:00.074Z,3.37
2019-01-26T23:06:35.651Z,3.30
2019-01-26T23:09:12.498Z,3.23
2019-01-26T23:12:05.419Z,3.20
2019-01-26T23:15:18.568Z,3.20
2019-01-26T23:18:06.914Z,3.18
2019-01-26T23:21:05.477Z,3.22
2019-01-26T23:23:54.745Z,3.28
2019-01-26T23:27:16.405Z,3.28
2019-01-26T23:30:02.458Z,3.29
2019-01-26T23:32:30.910Z,3.21
2019-01-26T23:34:59.350Z,3.20
2019-01-26T23:37:28.417Z,3.19
2019-01-26T23:39:56.850Z,3.21
2019-01-26T23:42:25.584Z,3.20
2019-01-26T23:44:54.031Z,3.21
2019-01-26T23:47:22.750Z,3.24
2019-01-26T23:49:51.543Z,3.26
2019-01-26T23:52:19.988Z,3.28
2019-01-26T23:54:48.435Z,3.32
2019-01-26T23:57:17.431Z,3.39
2019-01-26T23:59:46.147Z,3.39
